createdAt,value
2019-03-01T00:04:06.871Z,10.37
2019-03-01T00:09:31.351Z,10.42
2019-03-01T00:14:49.644Z,10.41
2019-03-01T00:20:18.828Z,10.37
2019-03-01T00:25:42.035Z,10.39
2019-03-01T00:30:57.480Z,10.34
2019-03-01T00:36:25.295Z,10.32
2019-03-01T00:41:34.741Z,10.29
2019-03-01T00:46:38.221Z,10.27
2019-03-01T00:51:41.660Z,10.21
2019-03-01T00:56:45.094Z,10.18
2019-03-01T01:01:48.522Z,10.15
2019-03-01T01:06:52.097Z,10.13
2019-03-01T01:11:55.524Z,10.07
2019-03-01T01:16:58.976Z,10.05
2019-03-01T01:22:02.422Z,10.05
2019-03-01T01:27:06.167Z,10.03
2019-03-01T01:32:09.607Z,9.99
2019-03-01T01:37:13.061Z,10.04
2019-03-01T01:42:16.505Z,10.04
2019-03-01T01:47:20.034Z,10.04
2019-03-01T01:52:23.495Z,10.02
2019-03-01T01:57:26.931Z,9.99
2019-03-01T02:02:30.369Z,9.96
2019-03-01T02:07:33.811Z,9.92
2019-03-01T02:12:37.313Z,9.94
2019-03-01T02:17:40.860Z,9.88
2019-03-01T02:22:44.286Z,9.86
2019-03-01T02:27:47.721Z,9.85
2019-03-01T02:32:51.147Z,9.81
2019-03-01T02:37:54.575Z,9.78
2019-03-01T02:42:58.001Z,9.75
2019-03-01T02:48:01.497Z,9.74
2019-03-01T02:53:05.056Z,9.74
2019-03-01T02:58:08.500Z,9.96
2019-03-01T03:03:11.949Z,9.64
2019-03-01T03:08:15.555Z,9.57
2019-03-01T03:13:19.003Z,9.50
2019-03-01T03:18:22.596Z,9.49
2019-03-01T03:23:26.087Z,9.48
2019-03-01T03:28:29.518Z,9.44
2019-03-01T03:33:33.029Z,9.44
2019-03-01T03:38:36.574Z,9.46
2019-03-01T03:43:39.984Z,9.45
2019-03-01T03:48:43.429Z,9.55
2019-03-01T03:53:46.886Z,9.59
2019-03-01T03:58:50.400Z,9.60
2019-03-01T04:03:53.833Z,9.62
2019-03-01T04:08:57.281Z,9.64
2019-03-01T04:14:00.720Z,9.61
2019-03-01T04:19:04.135Z,9.62
2019-03-01T04:24:07.564Z,9.57
2019-03-01T04:29:11.020Z,9.62
2019-03-01T04:34:14.494Z,9.63
2019-03-01T04:39:17.934Z,9.64
2019-03-01T04:44:21.374Z,9.62
2019-03-01T04:49:24.820Z,9.67
2019-03-01T04:54:28.248Z,9.59
2019-03-01T04:59:31.716Z,9.63
2019-03-01T05:04:35.140Z,9.61
2019-03-01T05:09:38.664Z,9.58
2019-03-01T05:14:42.127Z,9.58
2019-03-01T05:19:45.686Z,9.55
2019-03-01T05:24:49.105Z,9.56
2019-03-01T05:29:53.475Z,9.55
2019-03-01T05:34:56.889Z,9.55
2019-03-01T05:40:00.313Z,9.53
2019-03-01T05:45:05.316Z,9.55
2019-03-01T05:50:11.790Z,9.56
2019-03-01T05:55:15.415Z,9.52
2019-03-01T06:00:18.912Z,9.56
2019-03-01T06:05:22.362Z,9.51
2019-03-01T06:10:31.908Z,9.53
2019-03-01T06:15:52.908Z,9.54
2019-03-01T06:21:02.156Z,9.55
2019-03-01T06:26:08.642Z,9.55
2019-03-01T06:31:40.542Z,9.57
2019-03-01T06:37:01.917Z,9.56
2019-03-01T06:42:13.096Z,9.55
2019-03-01T06:47:44.705Z,9.55
2019-03-01T06:52:48.295Z,9.56
2019-03-01T06:57:53.068Z,9.57
2019-03-01T07:03:06.574Z,9.56
2019-03-01T07:08:23.958Z,9.58
2019-03-01T07:13:30.748Z,9.56
2019-03-01T07:18:40.269Z,9.57
2019-03-01T07:23:46.819Z,9.60
2019-03-01T07:29:10.734Z,9.59
2019-03-01T07:34:17.214Z,9.60
2019-03-01T07:39:19.875Z,9.62
2019-03-01T07:44:23.350Z,9.61
2019-03-01T07:49:29.210Z,9.69
2019-03-01T07:54:43.330Z,9.83
2019-03-01T07:59:46.770Z,9.94
2019-03-01T08:04:50.216Z,9.99
2019-03-01T08:09:54.269Z,10.02
2019-03-01T08:14:57.948Z,10.07
2019-03-01T08:20:01.464Z,10.05
2019-03-01T08:25:07.088Z,10.06
2019-03-01T08:30:15.461Z,10.08
2019-03-01T08:35:19.389Z,10.10
2019-03-01T08:40:22.824Z,10.12
2019-03-01T08:45:26.276Z,10.04
2019-03-01T08:50:29.723Z,10.10
2019-03-01T08:55:35.512Z,10.06
2019-03-01T09:00:43.231Z,10.10
2019-03-01T09:05:46.707Z,10.09
2019-03-01T09:10:50.141Z,10.04
2019-03-01T09:15:53.589Z,10.03
2019-03-01T09:21:04.517Z,10.05
2019-03-01T09:26:02.191Z,9.99
2019-03-01T09:31:05.764Z,9.99
2019-03-01T09:36:10.930Z,9.98
2019-03-01T09:41:14.357Z,10.02
2019-03-01T09:46:20.786Z,9.95
2019-03-01T09:51:22.946Z,9.86
2019-03-01T09:56:26.357Z,9.85
2019-03-01T10:01:29.791Z,9.96
2019-03-01T10:06:38.097Z,10.10
2019-03-01T10:11:38.386Z,10.16
2019-03-01T10:16:41.825Z,10.30
2019-03-01T10:21:45.284Z,10.46
2019-03-01T10:26:48.704Z,10.60
2019-03-01T10:31:52.220Z,10.46
2019-03-01T10:36:55.637Z,10.39
2019-03-01T10:41:59.062Z,10.58
2019-03-01T10:47:02.489Z,10.69
2019-03-01T10:52:05.924Z,10.73
2019-03-01T10:57:09.345Z,10.76
2019-03-01T11:02:13.028Z,10.66
2019-03-01T11:07:16.477Z,10.48
2019-03-01T11:12:19.918Z,10.47
2019-03-01T11:17:23.363Z,10.38
2019-03-01T11:22:26.803Z,10.43
2019-03-01T11:27:30.233Z,10.45
2019-03-01T11:32:33.659Z,10.36
2019-03-01T11:37:37.103Z,10.19
2019-03-01T11:42:40.524Z,9.94
2019-03-01T11:47:44.098Z,9.62
2019-03-01T11:52:47.744Z,9.60
2019-03-01T11:57:51.319Z,9.22
2019-03-01T12:02:54.803Z,9.08
2019-03-01T12:07:58.221Z,8.67
2019-03-01T12:13:01.643Z,8.84
2019-03-01T12:18:05.107Z,8.60
2019-03-01T12:23:08.573Z,8.61
2019-03-01T12:28:11.976Z,8.26
2019-03-01T12:33:15.415Z,8.04
2019-03-01T12:38:18.848Z,7.92
2019-03-01T12:43:22.284Z,7.70
2019-03-01T12:48:25.722Z,7.64
2019-03-01T12:53:29.149Z,7.69
2019-03-01T12:58:32.590Z,7.74
2019-03-01T13:03:36.028Z,7.65
2019-03-01T13:08:39.470Z,7.74
2019-03-01T13:13:42.921Z,7.52
2019-03-01T13:18:47.602Z,7.49
2019-03-01T13:23:51.519Z,7.58
2019-03-01T13:28:54.949Z,7.53
2019-03-01T13:33:58.378Z,7.48
2019-03-01T13:39:01.818Z,7.38
2019-03-01T13:44:05.279Z,7.40
2019-03-01T13:49:08.707Z,7.42
2019-03-01T13:54:12.151Z,7.51
2019-03-01T13:59:15.591Z,7.60
2019-03-01T14:04:19.040Z,7.42
2019-03-01T14:09:23.305Z,7.56
2019-03-01T14:14:28.118Z,7.41
2019-03-01T14:19:31.749Z,7.27
2019-03-01T14:24:35.187Z,7.39
2019-03-01T14:29:38.965Z,7.16
2019-03-01T14:34:47.513Z,6.96
2019-03-01T14:39:47.541Z,6.95
2019-03-01T14:44:50.999Z,6.87
2019-03-01T14:49:57.849Z,6.82
2019-03-01T14:54:59.624Z,6.79
2019-03-01T15:00:09.787Z,6.81
2019-03-01T15:05:17.886Z,6.85
2019-03-01T15:10:19.554Z,6.82
2019-03-01T15:15:26.420Z,6.78
2019-03-01T15:20:28.244Z,6.68
2019-03-01T15:25:31.677Z,6.66
2019-03-01T15:30:35.185Z,6.74
2019-03-01T15:35:39.820Z,6.84
2019-03-01T15:40:43.837Z,6.78
2019-03-01T15:45:47.295Z,6.63
2019-03-01T15:50:50.790Z,6.51
2019-03-01T15:55:55.003Z,6.59
2019-03-01T16:00:58.599Z,6.59
2019-03-01T16:06:02.042Z,6.74
2019-03-01T16:11:05.645Z,6.61
2019-03-01T16:16:10.793Z,6.50
2019-03-01T16:21:14.282Z,6.59
2019-03-01T16:26:17.735Z,6.74
2019-03-01T16:31:21.182Z,6.67
2019-03-01T16:36:27.682Z,6.55
2019-03-01T16:41:31.109Z,6.47
2019-03-01T16:46:34.543Z,6.47
2019-03-01T16:51:38.012Z,6.45
2019-03-01T16:56:41.449Z,6.44
2019-03-01T17:01:45.174Z,6.49
2019-03-01T17:06:49.332Z,6.36
2019-03-01T17:11:53.749Z,6.38
2019-03-01T17:16:59.650Z,6.36
2019-03-01T17:22:02.328Z,6.16
2019-03-01T17:27:06.781Z,5.99
2019-03-01T17:32:10.547Z,6.07
2019-03-01T17:37:17.256Z,5.99
2019-03-01T17:42:20.738Z,6.04
2019-03-01T17:47:25.016Z,6.09
2019-03-01T17:52:30.567Z,6.20
2019-03-01T17:57:34.021Z,6.28
2019-03-01T18:02:37.499Z,6.31
2019-03-01T18:07:41.164Z,6.38
2019-03-01T18:12:44.583Z,6.42
2019-03-01T18:17:48.001Z,6.47
2019-03-01T18:22:51.516Z,6.45
2019-03-01T18:27:54.940Z,6.51
2019-03-01T18:32:58.431Z,6.42
2019-03-01T18:38:01.856Z,6.43
2019-03-01T18:43:05.289Z,6.43
2019-03-01T18:48:09.805Z,6.42
2019-03-01T18:53:13.424Z,6.48
2019-03-01T18:58:16.847Z,6.35
2019-03-01T19:03:20.277Z,6.12
2019-03-01T19:08:24.572Z,6.06
2019-03-01T19:13:28.019Z,6.19
2019-03-01T19:18:31.474Z,6.18
2019-03-01T19:23:34.881Z,6.14
2019-03-01T19:28:38.312Z,6.13
2019-03-01T19:33:41.890Z,5.99
2019-03-01T19:38:46.486Z,5.97
2019-03-01T19:43:55.598Z,6.00
2019-03-01T19:48:55.079Z,6.04
2019-03-01T19:54:01.145Z,6.14
2019-03-01T19:59:03.650Z,6.17
2019-03-01T20:04:07.093Z,6.16
2019-03-01T20:09:11.143Z,6.28
2019-03-01T20:14:14.592Z,6.29
2019-03-01T20:19:20.843Z,6.31
2019-03-01T20:24:23.268Z,6.35
2019-03-01T20:29:26.713Z,6.30
2019-03-01T20:34:31.283Z,6.33
2019-03-01T20:39:34.937Z,6.41
2019-03-01T20:44:38.360Z,6.37
2019-03-01T20:49:41.794Z,6.38
2019-03-01T20:54:45.235Z,6.33
2019-03-01T20:59:50.642Z,6.31
2019-03-01T21:04:53.901Z,6.31
2019-03-01T21:09:57.916Z,6.26
2019-03-01T21:15:02.003Z,6.25
2019-03-01T21:20:08.848Z,6.28
2019-03-01T21:25:19.554Z,6.31
2019-03-01T21:30:30.086Z,6.34
2019-03-01T21:35:33.538Z,6.37
2019-03-01T21:40:36.974Z,6.32
2019-03-01T21:45:40.387Z,6.29
2019-03-01T21:50:43.983Z,6.29
2019-03-01T21:55:47.441Z,6.29
2019-03-01T22:00:50.857Z,6.29
2019-03-01T22:05:54.704Z,6.29
2019-03-01T22:10:58.143Z,6.33
2019-03-01T22:16:01.888Z,6.28
2019-03-01T22:21:05.339Z,6.20
2019-03-01T22:26:09.688Z,6.17
2019-03-01T22:31:14.088Z,6.17
2019-03-01T22:36:18.215Z,6.12
2019-03-01T22:41:22.430Z,6.08
2019-03-01T22:46:25.985Z,6.04
2019-03-01T22:51:29.382Z,6.05
2019-03-01T22:56:32.803Z,6.01
2019-03-01T23:01:38.276Z,5.99
2019-03-01T23:06:41.766Z,5.99
2019-03-01T23:11:45.174Z,5.99
2019-03-01T23:16:50.774Z,5.91
2019-03-01T23:21:53.757Z,5.99
2019-03-01T23:26:57.750Z,5.91
2019-03-01T23:32:01.256Z,5.90
2019-03-01T23:37:04.687Z,5.93
2019-03-01T23:42:08.108Z,5.93
2019-03-01T23:47:11.539Z,5.97
2019-03-01T23:52:15.054Z,5.97
2019-03-01T23:57:18.632Z,6.00
